sensor_id;sensor_type;location;lat;lon;timestamp;P1;durP1;ratioP1;P2;durP2;ratioP2
16654;SDS011;8441;51.344;7.022;2022-07-04T00:01:58;0.10;;;0.10;;
16654;SDS011;8441;51.344;7.022;2022-07-04T00:04:26;0.10;;;0.10;;
16654;SDS011;8441;51.344;7.022;2022-07-04T00:06:53;0.10;;;0.10;;
16654;SDS011;8441;51.344;7.022;2022-07-04T00:09:21;0.10;;;0.10;;
16654;SDS011;8441;51.344;7.022;2022-07-04T00:11:48;0.10;;;0.10;;
16654;SDS011;8441;51.344;7.022;2022-07-04T00:14:16;0.10;;;0.10;;
16654;SDS011;8441;51.344;7.022;2022-07-04T00:16:43;0.10;;;0.10;;
16654;SDS011;8441;51.344;7.022;2022-07-04T00:19:11;0.10;;;0.10;;
16654;SDS011;8441;51.344;7.022;2022-07-04T00:21:38;0.10;;;0.10;;
16654;SDS011;8441;51.344;7.022;2022-07-04T00:24:05;0.10;;;0.10;;
16654;SDS011;8441;51.344;7.022;2022-07-04T00:26:32;0.10;;;0.10;;
16654;SDS011;8441;51.344;7.022;2022-07-04T00:29:00;0.10;;;0.10;;
16654;SDS011;8441;51.344;7.022;2022-07-04T00:31:28;0.10;;;0.10;;
16654;SDS011;8441;51.344;7.022;2022-07-04T00:33:55;0.17;;;0.17;;
16654;SDS011;8441;51.344;7.022;2022-07-04T00:36:23;0.15;;;0.15;;
16654;SDS011;8441;51.344;7.022;2022-07-04T00:38:50;0.10;;;0.10;;
16654;SDS011;8441;51.344;7.022;2022-07-04T00:41:17;0.20;;;0.20;;
16654;SDS011;8441;51.344;7.022;2022-07-04T00:43:54;0.10;;;0.10;;
16654;SDS011;8441;51.344;7.022;2022-07-04T00:46:26;0.10;;;0.10;;
16654;SDS011;8441;51.344;7.022;2022-07-04T00:48:55;0.17;;;0.17;;
16654;SDS011;8441;51.344;7.022;2022-07-04T00:51:23;0.10;;;0.10;;
16654;SDS011;8441;51.344;7.022;2022-07-04T00:53:50;0.10;;;0.10;;
16654;SDS011;8441;51.344;7.022;2022-07-04T00:56:19;0.10;;;0.10;;
16654;SDS011;8441;51.344;7.022;2022-07-04T00:58:48;0.10;;;0.10;;
16654;SDS011;8441;51.344;7.022;2022-07-04T01:01:15;0.10;;;0.10;;
16654;SDS011;8441;51.344;7.022;2022-07-04T01:03:44;0.10;;;0.10;;
16654;SDS011;8441;51.344;7.022;2022-07-04T01:06:11;0.10;;;0.10;;
16654;SDS011;8441;51.344;7.022;2022-07-04T01:08:42;0.10;;;0.10;;
16654;SDS011;8441;51.344;7.022;2022-07-04T01:11:09;0.10;;;0.10;;
16654;SDS011;8441;51.344;7.022;2022-07-04T01:13:37;0.10;;;0.10;;
16654;SDS011;8441;51.344;7.022;2022-07-04T01:16:06;0.20;;;0.20;;
16654;SDS011;8441;51.344;7.022;2022-07-04T01:18:34;0.10;;;0.10;;
16654;SDS011;8441;51.344;7.022;2022-07-04T01:21:02;0.13;;;0.13;;
16654;SDS011;8441;51.344;7.022;2022-07-04T01:23:30;0.20;;;0.20;;
16654;SDS011;8441;51.344;7.022;2022-07-04T01:25:57;0.10;;;0.10;;
16654;SDS011;8441;51.344;7.022;2022-07-04T01:28:25;0.20;;;0.20;;
16654;SDS011;8441;51.344;7.022;2022-07-04T01:30:52;0.10;;;0.10;;
16654;SDS011;8441;51.344;7.022;2022-07-04T01:33:19;0.10;;;0.10;;
16654;SDS011;8441;51.344;7.022;2022-07-04T01:35:47;0.10;;;0.10;;
16654;SDS011;8441;51.344;7.022;2022-07-04T01:38:16;0.10;;;0.10;;
16654;SDS011;8441;51.344;7.022;2022-07-04T01:40:43;0.10;;;0.10;;
16654;SDS011;8441;51.344;7.022;2022-07-04T01:43:10;0.20;;;0.20;;
16654;SDS011;8441;51.344;7.022;2022-07-04T01:45:38;0.20;;;0.20;;
16654;SDS011;8441;51.344;7.022;2022-07-04T01:48:05;0.10;;;0.10;;
16654;SDS011;8441;51.344;7.022;2022-07-04T01:50:33;0.20;;;0.20;;
16654;SDS011;8441;51.344;7.022;2022-07-04T01:53:01;0.10;;;0.10;;
16654;SDS011;8441;51.344;7.022;2022-07-04T01:55:30;0.20;;;0.20;;
16654;SDS011;8441;51.344;7.022;2022-07-04T01:57:58;0.20;;;0.20;;
16654;SDS011;8441;51.344;7.022;2022-07-04T02:00:26;0.10;;;0.10;;
16654;SDS011;8441;51.344;7.022;2022-07-04T02:03:11;0.10;;;0.10;;
16654;SDS011;8441;51.344;7.022;2022-07-04T02:05:38;0.20;;;0.20;;
16654;SDS011;8441;51.344;7.022;2022-07-04T02:08:06;0.10;;;0.10;;
16654;SDS011;8441;51.344;7.022;2022-07-04T02:10:35;0.20;;;0.20;;
16654;SDS011;8441;51.344;7.022;2022-07-04T02:13:02;0.10;;;0.10;;
16654;SDS011;8441;51.344;7.022;2022-07-04T02:15:29;0.20;;;0.20;;
16654;SDS011;8441;51.344;7.022;2022-07-04T02:17:57;0.17;;;0.17;;
16654;SDS011;8441;51.344;7.022;2022-07-04T02:20:25;0.10;;;0.10;;
16654;SDS011;8441;51.344;7.022;2022-07-04T02:22:53;0.17;;;0.17;;
16654;SDS011;8441;51.344;7.022;2022-07-04T02:25:20;0.10;;;0.10;;
16654;SDS011;8441;51.344;7.022;2022-07-04T02:27:49;0.10;;;0.10;;
16654;SDS011;8441;51.344;7.022;2022-07-04T02:30:16;0.10;;;0.10;;
16654;SDS011;8441;51.344;7.022;2022-07-04T02:32:43;0.10;;;0.10;;
16654;SDS011;8441;51.344;7.022;2022-07-04T02:35:11;0.10;;;0.10;;
16654;SDS011;8441;51.344;7.022;2022-07-04T02:37:38;0.10;;;0.10;;
16654;SDS011;8441;51.344;7.022;2022-07-04T02:40:06;0.17;;;0.17;;
16654;SDS011;8441;51.344;7.022;2022-07-04T02:42:34;0.10;;;0.10;;
16654;SDS011;8441;51.344;7.022;2022-07-04T02:45:04;0.10;;;0.10;;
16654;SDS011;8441;51.344;7.022;2022-07-04T02:47:32;0.10;;;0.10;;
16654;SDS011;8441;51.344;7.022;2022-07-04T02:50:00;0.10;;;0.10;;
16654;SDS011;8441;51.344;7.022;2022-07-04T02:52:27;0.10;;;0.10;;
16654;SDS011;8441;51.344;7.022;2022-07-04T02:54:55;0.10;;;0.10;;
16654;SDS011;8441;51.344;7.022;2022-07-04T02:57:23;0.20;;;0.20;;
16654;SDS011;8441;51.344;7.022;2022-07-04T02:59:50;0.10;;;0.10;;
16654;SDS011;8441;51.344;7.022;2022-07-04T03:02:19;0.10;;;0.10;;
16654;SDS011;8441;51.344;7.022;2022-07-04T03:04:46;0.10;;;0.10;;
16654;SDS011;8441;51.344;7.022;2022-07-04T03:07:13;0.20;;;0.20;;
16654;SDS011;8441;51.344;7.022;2022-07-04T03:09:40;0.10;;;0.10;;
16654;SDS011;8441;51.344;7.022;2022-07-04T03:12:08;0.20;;;0.20;;
16654;SDS011;8441;51.344;7.022;2022-07-04T03:14:35;0.20;;;0.20;;
16654;SDS011;8441;51.344;7.022;2022-07-04T03:17:02;0.20;;;0.20;;
16654;SDS011;8441;51.344;7.022;2022-07-04T03:19:31;0.10;;;0.10;;
16654;SDS011;8441;51.344;7.022;2022-07-04T03:21:58;0.10;;;0.10;;
16654;SDS011;8441;51.344;7.022;2022-07-04T03:24:25;0.20;;;0.20;;
16654;SDS011;8441;51.344;7.022;2022-07-04T03:26:52;0.10;;;0.10;;
16654;SDS011;8441;51.344;7.022;2022-07-04T03:29:20;0.10;;;0.10;;
16654;SDS011;8441;51.344;7.022;2022-07-04T03:31:47;0.20;;;0.20;;
16654;SDS011;8441;51.344;7.022;2022-07-04T03:34:14;0.20;;;0.20;;
16654;SDS011;8441;51.344;7.022;2022-07-04T03:36:43;0.10;;;0.10;;
16654;SDS011;8441;51.344;7.022;2022-07-04T03:39:10;0.13;;;0.13;;
16654;SDS011;8441;51.344;7.022;2022-07-04T03:41:37;0.20;;;0.20;;
16654;SDS011;8441;51.344;7.022;2022-07-04T03:44:04;0.20;;;0.20;;
16654;SDS011;8441;51.344;7.022;2022-07-04T03:46:31;0.20;;;0.20;;
16654;SDS011;8441;51.344;7.022;2022-07-04T03:48:59;0.20;;;0.20;;
16654;SDS011;8441;51.344;7.022;2022-07-04T03:51:26;0.20;;;0.20;;
16654;SDS011;8441;51.344;7.022;2022-07-04T03:53:54;0.10;;;0.10;;
16654;SDS011;8441;51.344;7.022;2022-07-04T03:56:22;0.20;;;0.20;;
16654;SDS011;8441;51.344;7.022;2022-07-04T03:58:49;0.20;;;0.20;;
16654;SDS011;8441;51.344;7.022;2022-07-04T04:01:16;0.20;;;0.20;;
16654;SDS011;8441;51.344;7.022;2022-07-04T04:03:44;0.20;;;0.20;;
16654;SDS011;8441;51.344;7.022;2022-07-04T04:06:29;0.10;;;0.10;;
16654;SDS011;8441;51.344;7.022;2022-07-04T04:08:58;0.10;;;0.10;;
16654;SDS011;8441;51.344;7.022;2022-07-04T04:11:25;0.20;;;0.20;;
16654;SDS011;8441;51.344;7.022;2022-07-04T04:13:52;0.10;;;0.10;;
16654;SDS011;8441;51.344;7.022;2022-07-04T04:16:19;0.10;;;0.10;;
16654;SDS011;8441;51.344;7.022;2022-07-04T04:18:47;0.20;;;0.20;;
16654;SDS011;8441;51.344;7.022;2022-07-04T04:21:14;0.20;;;0.20;;
16654;SDS011;8441;51.344;7.022;2022-07-04T04:23:41;0.10;;;0.10;;
16654;SDS011;8441;51.344;7.022;2022-07-04T04:26:10;0.10;;;0.10;;
16654;SDS011;8441;51.344;7.022;2022-07-04T04:28:38;0.10;;;0.10;;
16654;SDS011;8441;51.344;7.022;2022-07-04T04:31:05;0.10;;;0.10;;
16654;SDS011;8441;51.344;7.022;2022-07-04T04:33:32;0.10;;;0.10;;
16654;SDS011;8441;51.344;7.022;2022-07-04T04:36:00;0.10;;;0.10;;
16654;SDS011;8441;51.344;7.022;2022-07-04T04:38:28;0.20;;;0.20;;
16654;SDS011;8441;51.344;7.022;2022-07-04T04:40:55;0.20;;;0.20;;
16654;SDS011;8441;51.344;7.022;2022-07-04T04:43:23;0.20;;;0.20;;
16654;SDS011;8441;51.344;7.022;2022-07-04T04:45:51;0.17;;;0.17;;
16654;SDS011;8441;51.344;7.022;2022-07-04T04:48:18;0.10;;;0.10;;
16654;SDS011;8441;51.344;7.022;2022-07-04T04:50:45;0.10;;;0.10;;
16654;SDS011;8441;51.344;7.022;2022-07-04T04:53:12;0.10;;;0.10;;
16654;SDS011;8441;51.344;7.022;2022-07-04T04:55:40;0.20;;;0.20;;
16654;SDS011;8441;51.344;7.022;2022-07-04T04:58:07;0.15;;;0.15;;
16654;SDS011;8441;51.344;7.022;2022-07-04T05:00:35;0.20;;;0.20;;
16654;SDS011;8441;51.344;7.022;2022-07-04T05:03:03;0.13;;;0.13;;
16654;SDS011;8441;51.344;7.022;2022-07-04T05:05:30;0.10;;;0.10;;
16654;SDS011;8441;51.344;7.022;2022-07-04T05:07:57;0.10;;;0.10;;
16654;SDS011;8441;51.344;7.022;2022-07-04T05:10:24;0.10;;;0.10;;
16654;SDS011;8441;51.344;7.022;2022-07-04T05:12:52;0.20;;;0.20;;
16654;SDS011;8441;51.344;7.022;2022-07-04T05:15:20;0.10;;;0.10;;
16654;SDS011;8441;51.344;7.022;2022-07-04T05:17:49;0.10;;;0.10;;
16654;SDS011;8441;51.344;7.022;2022-07-04T05:20:16;0.10;;;0.10;;
16654;SDS011;8441;51.344;7.022;2022-07-04T05:22:43;0.10;;;0.10;;
16654;SDS011;8441;51.344;7.022;2022-07-04T05:25:10;0.10;;;0.10;;
16654;SDS011;8441;51.344;7.022;2022-07-04T05:27:37;0.10;;;0.10;;
16654;SDS011;8441;51.344;7.022;2022-07-04T05:30:06;0.17;;;0.17;;
16654;SDS011;8441;51.344;7.022;2022-07-04T05:32:34;0.10;;;0.10;;
16654;SDS011;8441;51.344;7.022;2022-07-04T05:35:06;0.10;;;0.10;;
16654;SDS011;8441;51.344;7.022;2022-07-04T05:37:33;0.10;;;0.10;;
16654;SDS011;8441;51.344;7.022;2022-07-04T05:40:02;0.20;;;0.20;;
16654;SDS011;8441;51.344;7.022;2022-07-04T05:42:29;0.10;;;0.10;;
16654;SDS011;8441;51.344;7.022;2022-07-04T05:44:56;0.20;;;0.20;;
16654;SDS011;8441;51.344;7.022;2022-07-04T05:47:23;0.20;;;0.20;;
16654;SDS011;8441;51.344;7.022;2022-07-04T05:49:51;0.10;;;0.10;;
16654;SDS011;8441;51.344;7.022;2022-07-04T05:52:20;0.10;;;0.10;;
16654;SDS011;8441;51.344;7.022;2022-07-04T05:54:47;0.10;;;0.10;;
16654;SDS011;8441;51.344;7.022;2022-07-04T05:57:14;0.10;;;0.10;;
16654;SDS011;8441;51.344;7.022;2022-07-04T05:59:41;0.10;;;0.10;;
16654;SDS011;8441;51.344;7.022;2022-07-04T06:02:10;0.10;;;0.10;;
16654;SDS011;8441;51.344;7.022;2022-07-04T06:04:38;0.10;;;0.10;;
16654;SDS011;8441;51.344;7.022;2022-07-04T06:07:05;0.10;;;0.10;;
16654;SDS011;8441;51.344;7.022;2022-07-04T06:09:34;0.10;;;0.10;;
16654;SDS011;8441;51.344;7.022;2022-07-04T06:12:01;0.10;;;0.10;;
16654;SDS011;8441;51.344;7.022;2022-07-04T06:14:29;0.10;;;0.10;;
16654;SDS011;8441;51.344;7.022;2022-07-04T06:16:56;0.20;;;0.20;;
16654;SDS011;8441;51.344;7.022;2022-07-04T06:19:23;0.10;;;0.10;;
16654;SDS011;8441;51.344;7.022;2022-07-04T06:21:51;0.10;;;0.10;;
16654;SDS011;8441;51.344;7.022;2022-07-04T06:24:18;0.10;;;0.10;;
16654;SDS011;8441;51.344;7.022;2022-07-04T06:26:46;0.10;;;0.10;;
16654;SDS011;8441;51.344;7.022;2022-07-04T06:29:14;0.10;;;0.10;;
16654;SDS011;8441;51.344;7.022;2022-07-04T06:31:41;0.10;;;0.10;;
16654;SDS011;8441;51.344;7.022;2022-07-04T06:34:08;0.03;;;0.03;;
16654;SDS011;8441;51.344;7.022;2022-07-04T06:36:53;0.10;;;0.10;;
16654;SDS011;8441;51.344;7.022;2022-07-04T06:39:20;0.00;;;0.00;;
16654;SDS011;8441;51.344;7.022;2022-07-04T06:41:49;0.00;;;0.00;;
16654;SDS011;8441;51.344;7.022;2022-07-04T06:44:16;0.00;;;0.00;;
16654;SDS011;8441;51.344;7.022;2022-07-04T06:46:43;0.00;;;0.00;;
16654;SDS011;8441;51.344;7.022;2022-07-04T06:49:11;0.10;;;0.10;;
16654;SDS011;8441;51.344;7.022;2022-07-04T06:51:38;0.05;;;0.05;;
16654;SDS011;8441;51.344;7.022;2022-07-04T06:54:05;0.10;;;0.10;;
16654;SDS011;8441;51.344;7.022;2022-07-04T06:56:32;0.10;;;0.10;;
16654;SDS011;8441;51.344;7.022;2022-07-04T06:59:01;0.10;;;0.10;;
16654;SDS011;8441;51.344;7.022;2022-07-04T07:01:30;0.10;;;0.10;;
16654;SDS011;8441;51.344;7.022;2022-07-04T07:03:57;0.05;;;0.05;;
16654;SDS011;8441;51.344;7.022;2022-07-04T07:06:24;0.10;;;0.10;;
16654;SDS011;8441;51.344;7.022;2022-07-04T07:08:51;0.10;;;0.10;;
16654;SDS011;8441;51.344;7.022;2022-07-04T07:11:19;0.10;;;0.10;;
16654;SDS011;8441;51.344;7.022;2022-07-04T07:13:47;0.10;;;0.10;;
16654;SDS011;8441;51.344;7.022;2022-07-04T07:16:18;0.20;;;0.20;;
16654;SDS011;8441;51.344;7.022;2022-07-04T07:18:47;0.10;;;0.10;;
16654;SDS011;8441;51.344;7.022;2022-07-04T07:21:15;0.10;;;0.10;;
16654;SDS011;8441;51.344;7.022;2022-07-04T07:23:42;0.10;;;0.10;;
16654;SDS011;8441;51.344;7.022;2022-07-04T07:26:10;0.10;;;0.10;;
16654;SDS011;8441;51.344;7.022;2022-07-04T07:28:38;0.10;;;0.10;;
16654;SDS011;8441;51.344;7.022;2022-07-04T07:31:05;0.10;;;0.10;;
16654;SDS011;8441;51.344;7.022;2022-07-04T07:33:34;0.10;;;0.10;;
16654;SDS011;8441;51.344;7.022;2022-07-04T07:36:01;0.10;;;0.10;;
16654;SDS011;8441;51.344;7.022;2022-07-04T07:38:29;0.10;;;0.10;;
16654;SDS011;8441;51.344;7.022;2022-07-04T07:40:56;0.10;;;0.10;;
16654;SDS011;8441;51.344;7.022;2022-07-04T07:43:23;0.10;;;0.10;;
16654;SDS011;8441;51.344;7.022;2022-07-04T07:45:50;0.00;;;0.00;;
16654;SDS011;8441;51.344;7.022;2022-07-04T07:48:18;0.00;;;0.00;;
16654;SDS011;8441;51.344;7.022;2022-07-04T07:50:46;0.10;;;0.10;;
16654;SDS011;8441;51.344;7.022;2022-07-04T07:53:13;0.10;;;0.10;;
16654;SDS011;8441;51.344;7.022;2022-07-04T07:55:41;0.10;;;0.10;;
16654;SDS011;8441;51.344;7.022;2022-07-04T07:58:09;0.00;;;0.00;;
16654;SDS011;8441;51.344;7.022;2022-07-04T08:00:36;0.10;;;0.10;;
16654;SDS011;8441;51.344;7.022;2022-07-04T08:03:03;0.10;;;0.10;;
16654;SDS011;8441;51.344;7.022;2022-07-04T08:05:49;0.00;;;0.00;;
16654;SDS011;8441;51.344;7.022;2022-07-04T08:08:16;0.00;;;0.00;;
16654;SDS011;8441;51.344;7.022;2022-07-04T08:10:43;0.03;;;0.03;;
16654;SDS011;8441;51.344;7.022;2022-07-04T08:13:10;0.00;;;0.00;;
16654;SDS011;8441;51.344;7.022;2022-07-04T08:15:37;0.00;;;0.00;;
16654;SDS011;8441;51.344;7.022;2022-07-04T08:18:05;0.00;;;0.00;;
16654;SDS011;8441;51.344;7.022;2022-07-04T08:20:32;0.00;;;0.00;;
16654;SDS011;8441;51.344;7.022;2022-07-04T08:23:01;0.05;;;0.05;;
16654;SDS011;8441;51.344;7.022;2022-07-04T08:25:28;0.00;;;0.00;;
16654;SDS011;8441;51.344;7.022;2022-07-04T08:27:55;0.10;;;0.10;;
16654;SDS011;8441;51.344;7.022;2022-07-04T08:30:22;0.00;;;0.00;;
16654;SDS011;8441;51.344;7.022;2022-07-04T08:32:50;0.00;;;0.00;;
16654;SDS011;8441;51.344;7.022;2022-07-04T08:35:17;0.10;;;0.10;;
16654;SDS011;8441;51.344;7.022;2022-07-04T08:37:44;0.10;;;0.10;;
16654;SDS011;8441;51.344;7.022;2022-07-04T08:40:13;0.10;;;0.10;;
16654;SDS011;8441;51.344;7.022;2022-07-04T08:42:40;0.10;;;0.10;;
16654;SDS011;8441;51.344;7.022;2022-07-04T08:45:08;0.00;;;0.00;;
16654;SDS011;8441;51.344;7.022;2022-07-04T08:47:36;0.08;;;0.08;;
16654;SDS011;8441;51.344;7.022;2022-07-04T08:50:07;0.10;;;0.10;;
16654;SDS011;8441;51.344;7.022;2022-07-04T08:52:37;0.10;;;0.10;;
16654;SDS011;8441;51.344;7.022;2022-07-04T08:55:07;0.10;;;0.10;;
16654;SDS011;8441;51.344;7.022;2022-07-04T08:57:54;0.00;;;0.00;;
16654;SDS011;8441;51.344;7.022;2022-07-04T09:00:39;0.00;;;0.00;;
16654;SDS011;8441;51.344;7.022;2022-07-04T09:03:07;0.00;;;0.00;;
16654;SDS011;8441;51.344;7.022;2022-07-04T09:05:35;0.10;;;0.10;;
16654;SDS011;8441;51.344;7.022;2022-07-04T09:08:03;0.05;;;0.05;;
16654;SDS011;8441;51.344;7.022;2022-07-04T09:10:31;0.00;;;0.00;;
16654;SDS011;8441;51.344;7.022;2022-07-04T09:13:01;0.00;;;0.00;;
16654;SDS011;8441;51.344;7.022;2022-07-04T09:15:29;0.10;;;0.10;;
16654;SDS011;8441;51.344;7.022;2022-07-04T09:17:57;0.00;;;0.00;;
16654;SDS011;8441;51.344;7.022;2022-07-04T09:20:26;0.08;;;0.08;;
16654;SDS011;8441;51.344;7.022;2022-07-04T09:22:54;0.00;;;0.00;;
16654;SDS011;8441;51.344;7.022;2022-07-04T09:25:21;0.08;;;0.08;;
16654;SDS011;8441;51.344;7.022;2022-07-04T09:27:51;0.00;;;0.00;;
16654;SDS011;8441;51.344;7.022;2022-07-04T09:30:21;0.00;;;0.00;;
16654;SDS011;8441;51.344;7.022;2022-07-04T09:32:50;0.00;;;0.00;;
16654;SDS011;8441;51.344;7.022;2022-07-04T09:35:20;0.00;;;0.00;;
16654;SDS011;8441;51.344;7.022;2022-07-04T09:37:49;0.00;;;0.00;;
16654;SDS011;8441;51.344;7.022;2022-07-04T09:40:21;0.00;;;0.00;;
16654;SDS011;8441;51.344;7.022;2022-07-04T09:42:50;0.10;;;0.10;;
16654;SDS011;8441;51.344;7.022;2022-07-04T09:45:17;0.00;;;0.00;;
16654;SDS011;8441;51.344;7.022;2022-07-04T09:47:47;0.03;;;0.03;;
16654;SDS011;8441;51.344;7.022;2022-07-04T09:50:15;0.00;;;0.00;;
16654;SDS011;8441;51.344;7.022;2022-07-04T09:52:45;0.10;;;0.10;;
16654;SDS011;8441;51.344;7.022;2022-07-04T09:55:19;0.00;;;0.00;;
16654;SDS011;8441;51.344;7.022;2022-07-04T09:57:48;0.10;;;0.10;;
16654;SDS011;8441;51.344;7.022;2022-07-04T10:00:17;0.00;;;0.00;;
16654;SDS011;8441;51.344;7.022;2022-07-04T10:02:49;0.00;;;0.00;;
16654;SDS011;8441;51.344;7.022;2022-07-04T10:05:19;0.00;;;0.00;;
16654;SDS011;8441;51.344;7.022;2022-07-04T10:07:48;0.00;;;0.00;;
16654;SDS011;8441;51.344;7.022;2022-07-04T10:10:22;0.10;;;0.10;;
16654;SDS011;8441;51.344;7.022;2022-07-04T10:12:51;0.00;;;0.00;;
16654;SDS011;8441;51.344;7.022;2022-07-04T10:15:19;0.00;;;0.00;;
16654;SDS011;8441;51.344;7.022;2022-07-04T10:17:47;0.00;;;0.00;;
16654;SDS011;8441;51.344;7.022;2022-07-04T10:20:16;0.00;;;0.00;;
16654;SDS011;8441;51.344;7.022;2022-07-04T10:22:43;0.00;;;0.00;;
16654;SDS011;8441;51.344;7.022;2022-07-04T10:25:10;0.00;;;0.00;;
16654;SDS011;8441;51.344;7.022;2022-07-04T10:27:38;0.10;;;0.10;;
16654;SDS011;8441;51.344;7.022;2022-07-04T10:30:06;0.00;;;0.00;;
16654;SDS011;8441;51.344;7.022;2022-07-04T10:32:36;0.00;;;0.00;;
16654;SDS011;8441;51.344;7.022;2022-07-04T10:35:05;0.10;;;0.10;;
16654;SDS011;8441;51.344;7.022;2022-07-04T10:40:41;0.00;;;0.00;;
16654;SDS011;8441;51.344;7.022;2022-07-04T10:46:32;0.00;;;0.00;;
16654;SDS011;8441;51.344;7.022;2022-07-04T10:49:02;0.00;;;0.00;;
16654;SDS011;8441;51.344;7.022;2022-07-04T10:51:34;0.00;;;0.00;;
16654;SDS011;8441;51.344;7.022;2022-07-04T10:54:08;0.00;;;0.00;;
16654;SDS011;8441;51.344;7.022;2022-07-04T10:56:39;0.00;;;0.00;;
16654;SDS011;8441;51.344;7.022;2022-07-04T10:59:17;0.00;;;0.00;;
16654;SDS011;8441;51.344;7.022;2022-07-04T11:01:51;0.00;;;0.00;;
16654;SDS011;8441;51.344;7.022;2022-07-04T11:07:10;0.00;;;0.00;;
16654;SDS011;8441;51.344;7.022;2022-07-04T11:09:39;0.00;;;0.00;;
16654;SDS011;8441;51.344;7.022;2022-07-04T11:12:08;0.00;;;0.00;;
16654;SDS011;8441;51.344;7.022;2022-07-04T11:14:37;0.10;;;0.10;;
16654;SDS011;8441;51.344;7.022;2022-07-04T11:17:05;0.00;;;0.00;;
16654;SDS011;8441;51.344;7.022;2022-07-04T11:19:33;0.00;;;0.00;;
16654;SDS011;8441;51.344;7.022;2022-07-04T11:22:01;0.00;;;0.00;;
16654;SDS011;8441;51.344;7.022;2022-07-04T11:24:30;0.10;;;0.10;;
16654;SDS011;8441;51.344;7.022;2022-07-04T11:26:59;0.00;;;0.00;;
16654;SDS011;8441;51.344;7.022;2022-07-04T11:29:27;0.00;;;0.00;;
16654;SDS011;8441;51.344;7.022;2022-07-04T11:31:54;0.00;;;0.00;;
16654;SDS011;8441;51.344;7.022;2022-07-04T11:34:22;0.05;;;0.00;;
16654;SDS011;8441;51.344;7.022;2022-07-04T11:36:50;0.00;;;0.00;;
16654;SDS011;8441;51.344;7.022;2022-07-04T11:39:19;0.00;;;0.00;;
16654;SDS011;8441;51.344;7.022;2022-07-04T11:41:48;0.00;;;0.00;;
16654;SDS011;8441;51.344;7.022;2022-07-04T11:44:38;0.00;;;0.00;;
16654;SDS011;8441;51.344;7.022;2022-07-04T11:47:24;0.00;;;0.00;;
16654;SDS011;8441;51.344;7.022;2022-07-04T11:49:58;0.00;;;0.00;;
16654;SDS011;8441;51.344;7.022;2022-07-04T11:52:26;0.00;;;0.00;;
16654;SDS011;8441;51.344;7.022;2022-07-04T11:54:55;0.00;;;0.00;;
16654;SDS011;8441;51.344;7.022;2022-07-04T11:57:23;0.00;;;0.00;;
16654;SDS011;8441;51.344;7.022;2022-07-04T11:59:56;0.00;;;0.00;;
16654;SDS011;8441;51.344;7.022;2022-07-04T12:02:25;0.00;;;0.00;;
16654;SDS011;8441;51.344;7.022;2022-07-04T12:04:53;0.00;;;0.00;;
16654;SDS011;8441;51.344;7.022;2022-07-04T12:07:22;0.00;;;0.00;;
16654;SDS011;8441;51.344;7.022;2022-07-04T12:09:51;0.00;;;0.00;;
16654;SDS011;8441;51.344;7.022;2022-07-04T12:12:19;0.00;;;0.00;;
16654;SDS011;8441;51.344;7.022;2022-07-04T12:14:58;0.00;;;0.00;;
16654;SDS011;8441;51.344;7.022;2022-07-04T12:17:30;0.00;;;0.00;;
16654;SDS011;8441;51.344;7.022;2022-07-04T12:19:59;0.00;;;0.00;;
16654;SDS011;8441;51.344;7.022;2022-07-04T12:22:29;0.00;;;0.00;;
16654;SDS011;8441;51.344;7.022;2022-07-04T12:24:58;0.00;;;0.00;;
16654;SDS011;8441;51.344;7.022;2022-07-04T12:27:27;0.00;;;0.00;;
16654;SDS011;8441;51.344;7.022;2022-07-04T12:29:56;0.00;;;0.00;;
16654;SDS011;8441;51.344;7.022;2022-07-04T12:38:03;0.00;;;0.00;;
16654;SDS011;8441;51.344;7.022;2022-07-04T12:40:32;0.00;;;0.00;;
16654;SDS011;8441;51.344;7.022;2022-07-04T12:42:59;0.00;;;0.00;;
16654;SDS011;8441;51.344;7.022;2022-07-04T12:45:41;0.00;;;0.00;;
16654;SDS011;8441;51.344;7.022;2022-07-04T12:48:21;0.00;;;0.00;;
16654;SDS011;8441;51.344;7.022;2022-07-04T12:50:52;0.10;;;0.10;;
16654;SDS011;8441;51.344;7.022;2022-07-04T12:53:20;0.00;;;0.00;;
16654;SDS011;8441;51.344;7.022;2022-07-04T12:55:48;0.00;;;0.00;;
16654;SDS011;8441;51.344;7.022;2022-07-04T12:58:15;0.00;;;0.00;;
16654;SDS011;8441;51.344;7.022;2022-07-04T13:00:44;0.00;;;0.00;;
16654;SDS011;8441;51.344;7.022;2022-07-04T13:03:11;0.00;;;0.00;;
16654;SDS011;8441;51.344;7.022;2022-07-04T13:05:39;0.00;;;0.00;;
16654;SDS011;8441;51.344;7.022;2022-07-04T13:08:06;0.00;;;0.00;;
16654;SDS011;8441;51.344;7.022;2022-07-04T13:10:34;0.00;;;0.00;;
16654;SDS011;8441;51.344;7.022;2022-07-04T13:13:01;0.00;;;0.00;;
16654;SDS011;8441;51.344;7.022;2022-07-04T13:15:29;0.00;;;0.00;;
16654;SDS011;8441;51.344;7.022;2022-07-04T13:17:58;0.00;;;0.00;;
16654;SDS011;8441;51.344;7.022;2022-07-04T13:20:27;0.00;;;0.00;;
16654;SDS011;8441;51.344;7.022;2022-07-04T13:22:54;0.00;;;0.00;;
16654;SDS011;8441;51.344;7.022;2022-07-04T13:25:21;0.00;;;0.00;;
16654;SDS011;8441;51.344;7.022;2022-07-04T13:27:48;0.00;;;0.00;;
16654;SDS011;8441;51.344;7.022;2022-07-04T13:30:16;0.00;;;0.00;;
16654;SDS011;8441;51.344;7.022;2022-07-04T13:32:43;0.00;;;0.00;;
16654;SDS011;8441;51.344;7.022;2022-07-04T13:35:11;0.00;;;0.00;;
16654;SDS011;8441;51.344;7.022;2022-07-04T13:37:38;0.00;;;0.00;;
16654;SDS011;8441;51.344;7.022;2022-07-04T13:40:06;0.00;;;0.00;;
16654;SDS011;8441;51.344;7.022;2022-07-04T13:42:35;0.00;;;0.00;;
16654;SDS011;8441;51.344;7.022;2022-07-04T13:45:19;0.00;;;0.00;;
16654;SDS011;8441;51.344;7.022;2022-07-04T13:47:47;0.00;;;0.00;;
16654;SDS011;8441;51.344;7.022;2022-07-04T13:50:15;0.00;;;0.00;;
16654;SDS011;8441;51.344;7.022;2022-07-04T13:52:43;0.00;;;0.00;;
16654;SDS011;8441;51.344;7.022;2022-07-04T13:55:10;0.00;;;0.00;;
16654;SDS011;8441;51.344;7.022;2022-07-04T13:57:37;0.00;;;0.00;;
16654;SDS011;8441;51.344;7.022;2022-07-04T14:00:05;0.00;;;0.00;;
16654;SDS011;8441;51.344;7.022;2022-07-04T14:02:34;0.00;;;0.00;;
16654;SDS011;8441;51.344;7.022;2022-07-04T14:05:02;0.00;;;0.00;;
16654;SDS011;8441;51.344;7.022;2022-07-04T14:07:31;0.00;;;0.00;;
16654;SDS011;8441;51.344;7.022;2022-07-04T14:09:58;0.00;;;0.00;;
16654;SDS011;8441;51.344;7.022;2022-07-04T14:12:26;0.00;;;0.00;;
16654;SDS011;8441;51.344;7.022;2022-07-04T14:14:53;0.00;;;0.00;;
16654;SDS011;8441;51.344;7.022;2022-07-04T14:17:20;0.00;;;0.00;;
16654;SDS011;8441;51.344;7.022;2022-07-04T14:19:47;0.00;;;0.00;;
16654;SDS011;8441;51.344;7.022;2022-07-04T14:22:14;0.00;;;0.00;;
16654;SDS011;8441;51.344;7.022;2022-07-04T14:24:43;0.00;;;0.00;;
16654;SDS011;8441;51.344;7.022;2022-07-04T14:27:10;0.00;;;0.00;;
16654;SDS011;8441;51.344;7.022;2022-07-04T14:29:38;0.00;;;0.00;;
16654;SDS011;8441;51.344;7.022;2022-07-04T14:32:06;0.00;;;0.00;;
16654;SDS011;8441;51.344;7.022;2022-07-04T14:34:33;0.00;;;0.00;;
16654;SDS011;8441;51.344;7.022;2022-07-04T14:37:00;0.00;;;0.00;;
16654;SDS011;8441;51.344;7.022;2022-07-04T14:39:28;0.00;;;0.00;;
16654;SDS011;8441;51.344;7.022;2022-07-04T14:41:56;0.00;;;0.00;;
16654;SDS011;8441;51.344;7.022;2022-07-04T14:44:23;0.00;;;0.00;;
16654;SDS011;8441;51.344;7.022;2022-07-04T14:46:51;0.00;;;0.00;;
16654;SDS011;8441;51.344;7.022;2022-07-04T14:49:18;0.00;;;0.00;;
16654;SDS011;8441;51.344;7.022;2022-07-04T14:51:45;0.00;;;0.00;;
16654;SDS011;8441;51.344;7.022;2022-07-04T14:54:12;0.00;;;0.00;;
16654;SDS011;8441;51.344;7.022;2022-07-04T14:56:40;0.00;;;0.00;;
16654;SDS011;8441;51.344;7.022;2022-07-04T14:59:09;0.00;;;0.00;;
16654;SDS011;8441;51.344;7.022;2022-07-04T15:01:36;0.00;;;0.00;;
16654;SDS011;8441;51.344;7.022;2022-07-04T15:04:03;0.00;;;0.00;;
16654;SDS011;8441;51.344;7.022;2022-07-04T15:06:31;0.00;;;0.00;;
16654;SDS011;8441;51.344;7.022;2022-07-04T15:08:58;0.10;;;0.10;;
16654;SDS011;8441;51.344;7.022;2022-07-04T15:11:25;0.00;;;0.00;;
16654;SDS011;8441;51.344;7.022;2022-07-04T15:13:52;0.00;;;0.00;;
16654;SDS011;8441;51.344;7.022;2022-07-04T15:16:21;0.00;;;0.00;;
16654;SDS011;8441;51.344;7.022;2022-07-04T15:18:48;0.00;;;0.00;;
16654;SDS011;8441;51.344;7.022;2022-07-04T15:21:16;0.00;;;0.00;;
16654;SDS011;8441;51.344;7.022;2022-07-04T15:24:00;0.00;;;0.00;;